Roy Baker — WDC2698 — position and weather

sailwx.info

Track history (hours):
 
Tides and Currents Weather Stations Pressure Air Temp Water Temp Dewpoint Dewpoint Depression Visibility Wind Speed Wind Dir Waves Ship Positions

Roy Baker

Owner: Kirby Inland Marine LP, Houston, TX. More information available from US FCC via Universal Licensing System and Coast Guard Vessel Documentation Center.

Last reported at 2017-Jan-06 15:04 UTC. Time now 2017-Feb-25 09:13 UTC.
Position N 29°47' W 095°04'.
Warning: this ship's position is 49 days out of date.

Length 23 m; draft 2.1 m.

Type: . MMSI: 366996540.

Date/timePositionNaut miles runAvg speedWind from/ knotsBaromVisibWave heightAir tempDewpointWater temp
2017-Jan-06 15:04N 29°47' W 095°04'2 0.1
2017-Jan-05 20:21N 29°45' W 095°06'1 0.0
2017-Jan-04 16:34N 29°45' W 095°06'2 0.1
2017-Jan-03 17:18N 29°46' W 095°05'5 5.4
2017-Jan-03 16:24N 29°42' W 095°01'6 7.4
2017-Jan-03 15:33N 29°37' W 094°57'8 7.8
2017-Jan-03 14:33N 29°30' W 094°53'78 3.5
2017-Jan-02 16:30N 30°04' W 093°32'7 7.1
2017-Jan-02 15:33N 30°04' W 093°24'5 5.4
2017-Jan-02 14:33N 30°06' W 093°18'0 0.0
2017-Jan-02 13:33N 30°06' W 093°18'0 0.0
2017-Jan-02 12:33N 30°06' W 093°18'0 0.0
2017-Jan-02 11:33N 30°06' W 093°18'1 1.0
2017-Jan-02 10:33N 30°05' W 093°17'1 1.4
2017-Jan-02 09:33N 30°04' W 093°16'0 0.0
2017-Jan-02 08:33N 30°04' W 093°16'4 3.9
2017-Jan-02 07:33N 30°01' W 093°14'5 5.0
2017-Jan-02 06:33N 29°57' W 093°10'40 6.4
2017-Jan-02 00:21N 29°53' W 092°25'5 6.2
2017-Jan-01 23:33N 29°51' W 092°20'6 5.9
2017-Jan-01 22:33N 29°48' W 092°14'3 3.3
2017-Jan-01 21:33N 29°47' W 092°11'3 2.9
2017-Jan-01 20:33N 29°47' W 092°07'3 2.9
2017-Jan-01 19:33N 29°47' W 092°11'6 5.6
2017-Jan-01 18:33N 29°49' W 092°16'5 5.1
2017-Jan-01 17:33N 29°51' W 092°22'40 3.3
2017-Jan-01 05:28N 29°56' W 093°07'4 4.6
2017-Jan-01 04:33N 29°58' W 093°11'5 4.9
2017-Jan-01 03:33N 30°02' W 093°15'3 2.7
2017-Jan-01 02:33N 30°04' W 093°16'2 1.7
2017-Jan-01 01:33N 30°06' W 093°18'1 0.8
2017-Jan-01 00:33N 30°06' W 093°19'4 3.5
2016-Dec-31 23:33N 30°04' W 093°21'4 3.8
2016-Dec-31 22:33N 30°04' W 093°26'  
2016-Dec-27 20:26N 30°04' W 093°32'6 6.8
2016-Dec-27 19:33N 30°04' W 093°26'5 5.3
2016-Dec-27 18:33N 30°05' W 093°20'1 1.2
2016-Dec-27 17:33N 30°06' W 093°19'0 0.0
2016-Dec-27 16:33N 30°06' W 093°19'0 0.0
2016-Dec-27 15:33N 30°06' W 093°19'  
Track history (hours):
 
Tides and Currents Weather Stations Pressure Air Temp Water Temp Dewpoint Dewpoint Depression Visibility Wind Speed Wind Dir Waves Ship Positions

Roy Baker

Owner: Kirby Inland Marine LP, Houston, TX. More information available from US FCC via Universal Licensing System and Coast Guard Vessel Documentation Center.

Last reported at 2017-Jan-06 15:04 UTC. Time now 2017-Feb-25 09:13 UTC.
Position N 29°47' W 095°04'.
Warning: this ship's position is 49 days out of date.

Length 23 m; draft 2.1 m.

Type: . MMSI: 366996540.

Date/timePositionNaut miles runAvg speedWind from/ knotsBaromVisibWave heightAir tempDewpointWater temp
2017-Jan-06 15:04N 29°47' W 095°04'2 0.1
2017-Jan-05 20:21N 29°45' W 095°06'1 0.0
2017-Jan-04 16:34N 29°45' W 095°06'2 0.1
2017-Jan-03 17:18N 29°46' W 095°05'5 5.4
2017-Jan-03 16:24N 29°42' W 095°01'6 7.4
2017-Jan-03 15:33N 29°37' W 094°57'8 7.8
2017-Jan-03 14:33N 29°30' W 094°53'78 3.5
2017-Jan-02 16:30N 30°04' W 093°32'7 7.1
2017-Jan-02 15:33N 30°04' W 093°24'5 5.4
2017-Jan-02 14:33N 30°06' W 093°18'0 0.0
2017-Jan-02 13:33N 30°06' W 093°18'0 0.0
2017-Jan-02 12:33N 30°06' W 093°18'0 0.0
2017-Jan-02 11:33N 30°06' W 093°18'1 1.0
2017-Jan-02 10:33N 30°05' W 093°17'1 1.4
2017-Jan-02 09:33N 30°04' W 093°16'0 0.0
2017-Jan-02 08:33N 30°04' W 093°16'4 3.9
2017-Jan-02 07:33N 30°01' W 093°14'5 5.0
2017-Jan-02 06:33N 29°57' W 093°10'40 6.4
2017-Jan-02 00:21N 29°53' W 092°25'5 6.2
2017-Jan-01 23:33N 29°51' W 092°20'6 5.9
2017-Jan-01 22:33N 29°48' W 092°14'3 3.3
2017-Jan-01 21:33N 29°47' W 092°11'3 2.9
2017-Jan-01 20:33N 29°47' W 092°07'3 2.9
2017-Jan-01 19:33N 29°47' W 092°11'6 5.6
2017-Jan-01 18:33N 29°49' W 092°16'5 5.1
2017-Jan-01 17:33N 29°51' W 092°22'40 3.3
2017-Jan-01 05:28N 29°56' W 093°07'4 4.6
2017-Jan-01 04:33N 29°58' W 093°11'5 4.9
2017-Jan-01 03:33N 30°02' W 093°15'3 2.7
2017-Jan-01 02:33N 30°04' W 093°16'2 1.7
2017-Jan-01 01:33N 30°06' W 093°18'1 0.8
2017-Jan-01 00:33N 30°06' W 093°19'4 3.5
2016-Dec-31 23:33N 30°04' W 093°21'4 3.8
2016-Dec-31 22:33N 30°04' W 093°26'  
2016-Dec-27 20:26N 30°04' W 093°32'6 6.8
2016-Dec-27 19:33N 30°04' W 093°26'5 5.3
2016-Dec-27 18:33N 30°05' W 093°20'1 1.2
2016-Dec-27 17:33N 30°06' W 093°19'0 0.0
2016-Dec-27 16:33N 30°06' W 093°19'0 0.0
2016-Dec-27 15:33N 30°06' W 093°19'  

Dump ship's entire track history